Date,TemperatureHighF,TemperatureAvgF,TemperatureLowF,DewpointHighF,DewpointAvgF,DewpointLowF,HumidityHigh,HumidityAvg,HumidityLow,PressureMaxIn,PressureMinIn,WindSpeedMaxMPH,WindSpeedAvgMPH,GustSpeedMaxMPH,PrecipitationSumIn
2013-2-1,15.7,11.4,7.7,3.0,-0.6,-2.4,67,58,46,30.12,29.54,5,3,11,0.00
2013-2-2,14.4,10.7,6.5,9.9,3.6,-4.3,84,73,58,30.16,29.96,3,1,6,0.06
2013-2-3,17.0,11.4,4.7,10.1,5.9,0.2,82,78,70,29.98,29.75,4,1,6,0.00
2013-2-4,17.3,11.3,-0.8,11.1,1.3,-8.3,84,65,39,29.91,29.75,5,2,11,0.01
2013-2-5,21.4,7.6,-13.0,5.4,-5.7,-20.0,73,57,29,29.98,29.82,1,0,6,0.00
2013-2-6,25.1,16.2,9.2,20.1,3.3,-9.6,83,58,36,30.36,29.77,8,2,11,0.00
2013-2-7,8.6,4.3,-1.2,-2.2,-7.7,-12.8,64,57,49,30.56,30.36,8,3,13,0.00
2013-2-8,13.3,8.2,4.3,9.6,3.5,-3.9,85,81,67,30.35,29.99,10,6,14,0.16
2013-2-9,19.1,10.7,-1.6,10.5,4.3,-7.6,84,75,62,30.36,30.07,8,2,11,0.01
2013-2-10,27.9,7.9,-12.8,13.0,-2.7,-19.8,80,63,34,30.43,30.11,4,0,7,0.00
2013-2-11,38.0,24.5,13.8,35.5,18.3,4.5,91,77,64,30.10,29.50,9,2,9,0.06
2013-2-12,37.8,35.1,34.0,32.2,30.7,27.7,93,85,68,29.69,29.49,9,6,14,0.05
2013-2-13,35.5,31.8,28.4,27.4,24.7,21.9,86,75,58,29.78,29.69,3,1,10,0.00
2013-2-14,38.5,32.5,28.1,27.3,22.8,19.6,83,68,47,29.85,29.71,4,1,5,0.00
2013-2-15,38.8,34.3,24.1,33.9,25.8,16.1,93,72,57,29.93,29.68,14,6,20,0.02
2013-2-16,23.6,16.4,6.7,12.8,4.5,-0.1,73,60,43,30.04,29.94,4,1,5,0.00
2013-2-17,14.8,8.9,2.6,1.8,-1.5,-4.1,74,62,49,29.97,29.81,6,3,14,0.00
2013-2-18,19.7,9.5,2.8,0.9,-3.2,-6.3,71,57,37,30.19,29.98,5,2,14,0.00
2013-2-19,33.4,24.7,9.7,31.9,15.1,1.1,94,68,47,30.04,29.54,8,2,14,0.24
2013-2-20,30.6,24.9,11.7,22.6,16.5,6.7,87,71,54,29.84,29.56,9,6,16,0.03
2013-2-21,20.8,13.1,6.7,15.4,6.2,-0.7,80,73,67,30.33,29.85,6,4,14,0.03
2013-2-22,34.0,28.8,22.1,23.5,21.4,17.8,84,74,64,30.39,30.11,7,2,9,0.00
2013-2-23,34.0,31.1,27.8,32.8,27.9,22.4,96,88,78,30.10,29.81,2,1,4,0.04
2013-2-24,37.8,34.5,32.5,33.1,29.6,25.9,96,83,63,29.90,29.75,3,1,6,0.00
2013-2-25,38.6,34.4,30.1,32.0,29.8,27.3,91,83,70,30.17,29.91,1,0,5,0.00
2013-2-26,40.6,34.6,26.4,30.4,28.3,23.3,91,78,62,30.24,29.98,7,2,7,0.00
2013-2-27,35.8,33.6,32.5,32.2,30.4,27.2,97,88,71,29.97,29.56,12,6,20,0.60
2013-2-28,38.6,34.3,31.8,34.9,32.4,30.8,97,93,84,29.61,29.47,5,1,7,0.06